Berlin — 9HA2295 — position and weather

sailwx.info

Track history (hours):
 
Tides and Currents Weather Stations Pressure Air Temp Water Temp Dewpoint Dewpoint Depression Visibility Wind Speed Wind Dir Waves Ship Positions

Berlin

Last reported at 2014-Jul-25 00:33 UTC. Time now 2014-Jul-25 01:33 UTC.
Position N 54°10' E 007°27'.

Length 140 m; draft 5 m.

Type: Passenger vessel. MMSI: 248277000.

Date/timePositionNaut miles runAvg speedWind from/ knotsBaromVisibWave heightAir tempDewpointWater temp
2014-Jul-25 00:33N 54°10' E 007°27'1211.8
2014-Jul-24 23:33N 54°21' E 007°20'1211.9
2014-Jul-24 22:33N 54°33' E 007°14'2322.9
2014-Jul-24 21:33N 54°54' E 007°02'2 2.3
2014-Jul-24 20:31N 54°56' E 007°00'1212.6
2014-Jul-24 19:32N 55°08' E 006°54'3121.4
2014-Jul-24 18:06N 55°38' E 006°40'3 5.4
2014-Jul-24 17:29N 55°35' E 006°42'2018.0
2014-Jul-24 16:22N 55°54' E 006°32'6 7.8
2014-Jul-24 15:33N 56°00' E 006°29'4613.3
2014-Jul-24 12:06N 56°45' E 006°07'6413.9
2014-Jul-24 07:31N 57°44' E 005°26'1313.8
2014-Jul-24 06:33N 57°57' E 005°16'1413.6
2014-Jul-24 05:33N 58°10' E 005°08'1413.5
2014-Jul-24 04:33N 58°23' E 004°60'1313.6
2014-Jul-24 03:33N 58°36' E 004°56'1313.2
2014-Jul-24 02:33N 58°49' E 004°51'1312.9
2014-Jul-24 01:33N 59°01' E 004°45'1312.8
2014-Jul-24 00:33N 59°14' E 004°40'1313.0
2014-Jul-23 23:33N 59°27' E 004°43'1313.3
2014-Jul-23 22:33N 59°40' E 004°46'1713.3
2014-Jul-23 21:14N 59°57' E 004°51'1911.2
2014-Jul-23 19:33N 60°14' E 005°09'1110.8
2014-Jul-23 18:33N 60°24' E 005°17'1 0.8
2014-Jul-23 17:18N 60°24' E 005°19'0 0.0
2014-Jul-23 16:30N 60°24' E 005°19'0 0.0
2014-Jul-23 15:30N 60°24' E 005°19'0 0.0
2014-Jul-23 14:30N 60°24' E 005°19'0 0.0
2014-Jul-23 13:30N 60°24' E 005°19'0 0.0
2014-Jul-23 12:12N 60°24' E 005°19'0 0.0
2014-Jul-23 11:24N 60°24' E 005°19'0 0.0
2014-Jul-23 10:29N 60°24' E 005°19'0 0.0
2014-Jul-23 09:29N 60°24' E 005°19'0 0.0
2014-Jul-23 08:30N 60°24' E 005°19'0 0.0
2014-Jul-23 07:30N 60°24' E 005°19'0 0.0
2014-Jul-23 06:30N 60°24' E 005°19'0 0.0
2014-Jul-23 05:30N 60°24' E 005°19'0 0.5
2014-Jul-23 04:34N 60°24' E 005°18'9 9.1
2014-Jul-23 03:33N 60°27' E 005°00'  
2014-Jul-20 17:27N 63°30' E 009°55'1213.3
2014-Jul-20 16:33N 63°27' E 010°21'2 1.6
2014-Jul-20 15:31N 63°26' E 010°24'0 0.0
2014-Jul-20 14:31N 63°26' E 010°24'0 0.0
2014-Jul-20 13:31N 63°26' E 010°24'0 0.0
2014-Jul-20 12:31N 63°26' E 010°24'0 0.0
2014-Jul-20 11:28N 63°26' E 010°24'0 0.0
2014-Jul-20 10:31N 63°26' E 010°24'0 0.0
2014-Jul-20 09:31N 63°26' E 010°24'0 0.0
2014-Jul-20 08:32N 63°26' E 010°24'0 0.0
2014-Jul-20 07:32N 63°26' E 010°24'0 0.3
2014-Jul-20 06:34N 63°26' E 010°23'1311.6
2014-Jul-20 05:25N 63°30' E 009°54'17711.9
2014-Jul-19 14:33N 66°17' E 012°09'1212.0
2014-Jul-19 13:33N 66°16' E 012°39'1312.5
2014-Jul-19 12:33N 66°25' E 012°59'1813.0
2014-Jul-19 11:09N 66°43' E 013°11'2 0.3
2014-Jul-19 03:26N 66°45' E 013°15'1211.0
2014-Jul-19 02:21N 66°55' E 013°29'1112.2
2014-Jul-19 01:25N 67°06' E 013°20'199 6.4
2014-Jul-17 18:15N 69°42' E 018°55'10812.4
2014-Jul-17 09:32N 70°38' E 023°27'5 1.4
2014-Jul-17 06:03N 70°40' E 023°41'4 0.3
2014-Jul-16 14:32N 70°44' E 023°36'113 5.3
2014-Jul-15 17:22N 69°41' E 018°59'0 0.0
2014-Jul-15 16:28N 69°41' E 018°59'0 0.0
2014-Jul-15 15:28N 69°41' E 018°59'0 0.0
2014-Jul-15 14:16N 69°41' E 018°59'0 0.0
2014-Jul-15 13:31N 69°41' E 018°59'0 0.0
2014-Jul-15 10:25N 69°41' E 018°59'0 0.0
2014-Jul-15 08:22N 69°41' E 018°59'0 0.0
2014-Jul-15 07:31N 69°41' E 018°59'0 0.2
2014-Jul-15 06:32N 69°41' E 018°60'  
Track history (hours):
 
Tides and Currents Weather Stations Pressure Air Temp Water Temp Dewpoint Dewpoint Depression Visibility Wind Speed Wind Dir Waves Ship Positions

Berlin

Last reported at 2014-Jul-25 00:33 UTC. Time now 2014-Jul-25 01:33 UTC.
Position N 54°10' E 007°27'.

Length 140 m; draft 5 m.

Type: Passenger vessel. MMSI: 248277000.

Date/timePositionNaut miles runAvg speedWind from/ knotsBaromVisibWave heightAir tempDewpointWater temp
2014-Jul-25 00:33N 54°10' E 007°27'1211.8
2014-Jul-24 23:33N 54°21' E 007°20'1211.9
2014-Jul-24 22:33N 54°33' E 007°14'2322.9
2014-Jul-24 21:33N 54°54' E 007°02'2 2.3
2014-Jul-24 20:31N 54°56' E 007°00'1212.6
2014-Jul-24 19:32N 55°08' E 006°54'3121.4
2014-Jul-24 18:06N 55°38' E 006°40'3 5.4
2014-Jul-24 17:29N 55°35' E 006°42'2018.0
2014-Jul-24 16:22N 55°54' E 006°32'6 7.8
2014-Jul-24 15:33N 56°00' E 006°29'4613.3
2014-Jul-24 12:06N 56°45' E 006°07'6413.9
2014-Jul-24 07:31N 57°44' E 005°26'1313.8
2014-Jul-24 06:33N 57°57' E 005°16'1413.6
2014-Jul-24 05:33N 58°10' E 005°08'1413.5
2014-Jul-24 04:33N 58°23' E 004°60'1313.6
2014-Jul-24 03:33N 58°36' E 004°56'1313.2
2014-Jul-24 02:33N 58°49' E 004°51'1312.9
2014-Jul-24 01:33N 59°01' E 004°45'1312.8
2014-Jul-24 00:33N 59°14' E 004°40'1313.0
2014-Jul-23 23:33N 59°27' E 004°43'1313.3
2014-Jul-23 22:33N 59°40' E 004°46'1713.3
2014-Jul-23 21:14N 59°57' E 004°51'1911.2
2014-Jul-23 19:33N 60°14' E 005°09'1110.8
2014-Jul-23 18:33N 60°24' E 005°17'1 0.8
2014-Jul-23 17:18N 60°24' E 005°19'0 0.0
2014-Jul-23 16:30N 60°24' E 005°19'0 0.0
2014-Jul-23 15:30N 60°24' E 005°19'0 0.0
2014-Jul-23 14:30N 60°24' E 005°19'0 0.0
2014-Jul-23 13:30N 60°24' E 005°19'0 0.0
2014-Jul-23 12:12N 60°24' E 005°19'0 0.0
2014-Jul-23 11:24N 60°24' E 005°19'0 0.0
2014-Jul-23 10:29N 60°24' E 005°19'0 0.0
2014-Jul-23 09:29N 60°24' E 005°19'0 0.0
2014-Jul-23 08:30N 60°24' E 005°19'0 0.0
2014-Jul-23 07:30N 60°24' E 005°19'0 0.0
2014-Jul-23 06:30N 60°24' E 005°19'0 0.0
2014-Jul-23 05:30N 60°24' E 005°19'0 0.5
2014-Jul-23 04:34N 60°24' E 005°18'9 9.1
2014-Jul-23 03:33N 60°27' E 005°00'  
2014-Jul-20 17:27N 63°30' E 009°55'1213.3
2014-Jul-20 16:33N 63°27' E 010°21'2 1.6
2014-Jul-20 15:31N 63°26' E 010°24'0 0.0
2014-Jul-20 14:31N 63°26' E 010°24'0 0.0
2014-Jul-20 13:31N 63°26' E 010°24'0 0.0
2014-Jul-20 12:31N 63°26' E 010°24'0 0.0
2014-Jul-20 11:28N 63°26' E 010°24'0 0.0
2014-Jul-20 10:31N 63°26' E 010°24'0 0.0
2014-Jul-20 09:31N 63°26' E 010°24'0 0.0
2014-Jul-20 08:32N 63°26' E 010°24'0 0.0
2014-Jul-20 07:32N 63°26' E 010°24'0 0.3
2014-Jul-20 06:34N 63°26' E 010°23'1311.6
2014-Jul-20 05:25N 63°30' E 009°54'17711.9
2014-Jul-19 14:33N 66°17' E 012°09'1212.0
2014-Jul-19 13:33N 66°16' E 012°39'1312.5
2014-Jul-19 12:33N 66°25' E 012°59'1813.0
2014-Jul-19 11:09N 66°43' E 013°11'2 0.3
2014-Jul-19 03:26N 66°45' E 013°15'1211.0
2014-Jul-19 02:21N 66°55' E 013°29'1112.2
2014-Jul-19 01:25N 67°06' E 013°20'199 6.4
2014-Jul-17 18:15N 69°42' E 018°55'10812.4
2014-Jul-17 09:32N 70°38' E 023°27'5 1.4
2014-Jul-17 06:03N 70°40' E 023°41'4 0.3
2014-Jul-16 14:32N 70°44' E 023°36'113 5.3
2014-Jul-15 17:22N 69°41' E 018°59'0 0.0
2014-Jul-15 16:28N 69°41' E 018°59'0 0.0
2014-Jul-15 15:28N 69°41' E 018°59'0 0.0
2014-Jul-15 14:16N 69°41' E 018°59'0 0.0
2014-Jul-15 13:31N 69°41' E 018°59'0 0.0
2014-Jul-15 10:25N 69°41' E 018°59'0 0.0
2014-Jul-15 08:22N 69°41' E 018°59'0 0.0
2014-Jul-15 07:31N 69°41' E 018°59'0 0.2
2014-Jul-15 06:32N 69°41' E 018°60'  

Dump ship's entire track history